createdAt,value
2018-02-02T00:00:24.953Z,96.88
2018-02-02T00:00:51.077Z,96.69
2018-02-02T00:01:17.178Z,97.07
2018-02-02T00:01:43.280Z,96.5
2018-02-02T00:02:09.401Z,96.78
2018-02-02T00:02:35.530Z,96.88
2018-02-02T00:03:01.697Z,97.07
2018-02-02T00:03:27.794Z,96.88
2018-02-02T00:03:53.912Z,96.69
2018-02-02T00:04:20.045Z,96.59
2018-02-02T00:04:46.160Z,96.5
2018-02-02T00:05:12.286Z,96.88
2018-02-02T00:05:38.384Z,96.78
2018-02-02T00:06:04.482Z,97.07
2018-02-02T00:06:30.585Z,96.97
2018-02-02T00:06:56.712Z,96.88
2018-02-02T00:07:22.842Z,96.69
2018-02-02T00:07:48.928Z,96.69
2018-02-02T00:08:15.031Z,96.78
2018-02-02T00:08:41.157Z,96.88
2018-02-02T00:09:07.261Z,97.16
2018-02-02T00:09:33.404Z,97.16
2018-02-02T00:09:59.499Z,97.16
2018-02-02T00:10:25.598Z,97.16
2018-02-02T00:10:51.706Z,96.59
2018-02-02T00:11:17.810Z,97.16
2018-02-02T00:11:43.914Z,97.07
2018-02-02T00:12:10.030Z,96.88
2018-02-02T00:12:36.173Z,97.16
2018-02-02T00:13:02.279Z,97.16
2018-02-02T00:13:28.383Z,96.69
2018-02-02T00:13:54.479Z,96.69
2018-02-02T00:14:20.601Z,96.88
2018-02-02T00:14:46.713Z,97.07
2018-02-02T00:15:12.817Z,96.78
2018-02-02T00:15:38.920Z,97.16
2018-02-02T00:16:05.025Z,97.45
2018-02-02T00:16:31.143Z,97.45
2018-02-02T00:16:57.262Z,97.35
2018-02-02T00:17:23.390Z,97.45
2018-02-02T00:17:49.482Z,96.97
2018-02-02T00:18:15.576Z,97.35
2018-02-02T00:18:41.695Z,97.07
2018-02-02T00:19:07.795Z,97.26
2018-02-02T00:19:33.918Z,97.54
2018-02-02T00:20:00.013Z,98.77
2018-02-02T00:20:26.127Z,98.58
2018-02-02T00:20:52.250Z,99.15
2018-02-02T00:21:18.344Z,99.15
2018-02-02T00:21:44.456Z,99.99
2018-02-02T00:22:10.556Z,99.34
2018-02-02T00:22:36.667Z,98.49
2018-02-02T00:23:02.770Z,97.26
2018-02-02T00:23:28.874Z,97.35
2018-02-02T00:23:54.976Z,96.97
2018-02-02T00:24:21.075Z,97.73
2018-02-02T00:24:47.185Z,97.45
2018-02-02T00:25:13.292Z,96.88
2018-02-02T00:25:39.399Z,96.78
2018-02-02T00:26:05.509Z,96.12
2018-02-02T00:26:31.606Z,96.12
2018-02-02T00:26:57.740Z,96.31
2018-02-02T00:27:23.909Z,96.03
2018-02-02T00:27:50.888Z,95.36
2018-02-02T00:28:17.051Z,95.36
2018-02-02T00:28:43.445Z,94.98
2018-02-02T00:29:09.546Z,95.17
2018-02-02T00:29:35.693Z,95.07
2018-02-02T00:30:02.082Z,95.07
2018-02-02T00:30:28.222Z,95.07
2018-02-02T00:30:54.534Z,95.65
2018-02-02T00:31:20.667Z,95.07
2018-02-02T00:31:46.762Z,95.74
2018-02-02T00:32:13.438Z,95.84
2018-02-02T00:32:39.914Z,95.65
2018-02-02T00:33:06.719Z,95.74
2018-02-02T00:33:33.209Z,96.03
2018-02-02T00:33:59.600Z,96.12
2018-02-02T00:34:25.970Z,95.45
2018-02-02T00:34:52.225Z,96.03
2018-02-02T00:35:18.288Z,96.12
2018-02-02T00:35:44.443Z,96.03
2018-02-02T00:36:10.519Z,95.93
2018-02-02T00:36:36.918Z,96.12
2018-02-02T00:37:02.979Z,96.22
2018-02-02T00:37:29.421Z,96.97
2018-02-02T00:37:55.965Z,96.97
2018-02-02T00:38:22.099Z,96.31
2018-02-02T00:38:48.323Z,96.12
2018-02-02T00:39:14.777Z,96.12
2018-02-02T00:39:41.605Z,96.12
2018-02-02T00:40:07.748Z,96.31
2018-02-02T00:40:33.846Z,96.22
2018-02-02T00:41:00.399Z,96.22
2018-02-02T00:41:26.632Z,96.31
2018-02-02T00:41:52.903Z,96.12
2018-02-02T00:42:19.013Z,95.74
2018-02-02T00:42:45.359Z,96.31
2018-02-02T00:43:11.889Z,96.88
2018-02-02T00:43:38.102Z,96.97
2018-02-02T00:44:04.583Z,96.78
2018-02-02T00:44:30.828Z,97.07
2018-02-02T00:44:56.930Z,96.41
2018-02-02T00:45:23.210Z,97.07
2018-02-02T00:45:49.444Z,97.26
2018-02-02T00:46:15.635Z,97.45
2018-02-02T00:46:41.854Z,97.26
2018-02-02T00:47:07.959Z,97.26
2018-02-02T00:47:34.312Z,97.83
2018-02-02T00:48:00.381Z,97.16
2018-02-02T00:48:26.866Z,97.35
2018-02-02T00:48:52.964Z,96.97
2018-02-02T00:49:19.613Z,96.88
2018-02-02T00:49:45.687Z,96.78
2018-02-02T00:50:11.994Z,97.07
2018-02-02T00:50:38.675Z,97.16
2018-02-02T00:51:04.897Z,97.07
2018-02-02T00:51:31.285Z,96.97
2018-02-02T00:51:57.382Z,97.35
2018-02-02T00:52:23.773Z,96.88
2018-02-02T00:52:50.484Z,97.35
2018-02-02T00:53:16.919Z,96.78
2018-02-02T00:53:43.250Z,96.78
2018-02-02T00:54:09.415Z,96.78
2018-02-02T00:54:36.162Z,97.16
2018-02-02T00:55:02.756Z,96.78
2018-02-02T00:55:29.263Z,96.78
2018-02-02T00:55:55.300Z,97.07
2018-02-02T00:56:21.778Z,96.78
2018-02-02T00:56:48.355Z,96.88
2018-02-02T00:57:14.922Z,96.22
2018-02-02T00:57:40.976Z,96.22
2018-02-02T00:58:07.256Z,96.12
2018-02-02T00:58:33.381Z,96.12
2018-02-02T00:58:59.615Z,95.93
2018-02-02T00:59:25.788Z,96.22
2018-02-02T00:59:52.131Z,96.22
2018-02-02T01:00:18.742Z,96.88
2018-02-02T01:00:45.342Z,96.59
2018-02-02T01:01:11.456Z,97.16
2018-02-02T01:01:37.883Z,97.07
2018-02-02T01:02:03.921Z,97.07
2018-02-02T01:02:30.308Z,97.07
2018-02-02T01:02:56.623Z,96.97
2018-02-02T01:03:23.371Z,96.88
2018-02-02T01:03:49.469Z,97.07
2018-02-02T01:04:15.606Z,96.69
2018-02-02T01:04:42.244Z,96.97
2018-02-02T01:05:08.710Z,96.88
2018-02-02T01:05:41.095Z,96.78
2018-02-02T01:06:08.357Z,96.78
2018-02-02T01:06:35.007Z,96.88
2018-02-02T01:07:01.610Z,96.88
2018-02-02T01:07:28.190Z,96.5
2018-02-02T01:07:54.270Z,96.97
2018-02-02T01:08:20.663Z,96.78
2018-02-02T01:08:46.765Z,96.78
2018-02-02T01:09:12.955Z,96.69
2018-02-02T01:09:39.051Z,97.07
2018-02-02T01:10:05.605Z,97.07
2018-02-02T01:10:31.993Z,96.78
2018-02-02T01:10:58.118Z,96.97
2018-02-02T01:11:24.258Z,96.97
2018-02-02T01:11:50.648Z,96.88
2018-02-02T01:12:17.154Z,96.88
2018-02-02T01:12:43.184Z,96.88
2018-02-02T01:13:09.414Z,97.35
2018-02-02T01:13:35.523Z,96.88
2018-02-02T01:14:01.621Z,97.07
2018-02-02T01:14:27.725Z,96.5
2018-02-02T01:14:53.824Z,97.07
2018-02-02T01:15:19.923Z,96.22
2018-02-02T01:15:46.016Z,96.5
2018-02-02T01:16:12.120Z,96.22
2018-02-02T01:16:38.222Z,96.12
2018-02-02T01:17:04.319Z,96.22
2018-02-02T01:17:30.489Z,96.31
2018-02-02T01:17:56.651Z,96.22
2018-02-02T01:18:23.025Z,95.65
2018-02-02T01:18:49.183Z,96.12
2018-02-02T01:19:15.258Z,96.22
2018-02-02T01:19:41.356Z,96.31
2018-02-02T01:20:07.474Z,96.22
2018-02-02T01:20:33.568Z,96.22
2018-02-02T01:20:59.674Z,96.31
2018-02-02T01:21:25.787Z,96.5
2018-02-02T01:21:51.903Z,96.31
2018-02-02T01:22:17.979Z,96.5
2018-02-02T01:22:44.086Z,96.03
2018-02-02T01:23:10.184Z,96.12
2018-02-02T01:23:36.291Z,96.41
2018-02-02T01:24:02.394Z,96.22
2018-02-02T01:24:28.493Z,96.12
2018-02-02T01:24:54.586Z,96.03
2018-02-02T01:25:20.683Z,96.12
2018-02-02T01:25:46.783Z,96.41
2018-02-02T01:26:12.886Z,96.41
2018-02-02T01:26:38.982Z,95.98
2018-02-02T01:27:05.082Z,95.84
2018-02-02T01:27:31.186Z,95.65
2018-02-02T01:27:57.286Z,95.55
2018-02-02T01:28:23.394Z,96.03
2018-02-02T01:28:49.505Z,95.74
2018-02-02T01:29:15.610Z,96.03
2018-02-02T01:29:41.705Z,96.22
2018-02-02T01:30:07.827Z,95.65
2018-02-02T01:30:33.926Z,96.03
2018-02-02T01:31:00.026Z,96.12
2018-02-02T01:31:26.140Z,97.07
2018-02-02T01:31:52.233Z,96.31
2018-02-02T01:32:18.331Z,96.22
2018-02-02T01:32:44.434Z,96.31
2018-02-02T01:33:10.528Z,96.22
2018-02-02T01:33:36.632Z,95.84
2018-02-02T01:34:02.734Z,96.5
2018-02-02T01:34:28.829Z,96.12
2018-02-02T01:34:54.927Z,95.93
2018-02-02T01:35:21.031Z,96.12
2018-02-02T01:35:47.135Z,96.31
2018-02-02T01:36:13.229Z,96.31
2018-02-02T01:36:39.326Z,96.12
2018-02-02T01:37:05.433Z,96.5
2018-02-02T01:37:31.530Z,96.22
2018-02-02T01:37:57.631Z,96.5
2018-02-02T01:38:23.728Z,96.5
2018-02-02T01:38:49.831Z,96.12
2018-02-02T01:39:15.947Z,96.5
2018-02-02T01:39:42.048Z,96.12
2018-02-02T01:40:08.144Z,96.12
2018-02-02T01:40:34.241Z,96.03
2018-02-02T01:41:00.346Z,96.03
2018-02-02T01:41:26.441Z,96.03
2018-02-02T01:41:52.535Z,95.65
2018-02-02T01:42:18.639Z,96.31
2018-02-02T01:42:44.737Z,96.41
2018-02-02T01:43:10.845Z,96.78
2018-02-02T01:43:36.942Z,96.97
2018-02-02T01:44:03.048Z,96.22
2018-02-02T01:44:29.141Z,96.41
2018-02-02T01:44:55.240Z,96.22
2018-02-02T01:45:21.362Z,96.03
2018-02-02T01:45:47.456Z,96.22
2018-02-02T01:46:13.562Z,96.5
2018-02-02T01:46:39.661Z,96.69
2018-02-02T01:47:05.766Z,96.31
2018-02-02T01:47:31.864Z,96.22
2018-02-02T01:47:57.958Z,96.31
2018-02-02T01:48:24.064Z,96.31
2018-02-02T01:48:50.157Z,96.41
2018-02-02T01:49:16.258Z,96.31
2018-02-02T01:49:42.355Z,96.12
2018-02-02T01:50:08.466Z,97.07
2018-02-02T01:50:34.566Z,96.78
2018-02-02T01:51:00.681Z,96.22
2018-02-02T01:51:26.779Z,96.12
2018-02-02T01:51:52.882Z,96.12
2018-02-02T01:52:18.976Z,96.12
2018-02-02T01:52:45.080Z,96.22
2018-02-02T01:53:11.179Z,96.5
2018-02-02T01:53:37.276Z,96.12
2018-02-02T01:54:03.370Z,96.41
2018-02-02T01:54:29.475Z,96.12
2018-02-02T01:54:55.578Z,96.31
2018-02-02T01:55:21.675Z,96.12
2018-02-02T01:55:47.804Z,96.03
2018-02-02T01:56:13.894Z,96.03
2018-02-02T01:56:40.032Z,95.84
2018-02-02T01:57:06.104Z,96.03
2018-02-02T01:57:32.204Z,96.03
2018-02-02T01:57:58.309Z,95.84
2018-02-02T01:58:24.407Z,95.93
2018-02-02T01:58:50.513Z,95.84
2018-02-02T01:59:16.612Z,96.22
2018-02-02T01:59:42.707Z,96.03
2018-02-02T02:00:08.812Z,96.03
2018-02-02T02:00:34.908Z,95.84
2018-02-02T02:01:01.010Z,95.93
2018-02-02T02:01:27.113Z,96.03
2018-02-02T02:01:53.211Z,96.03
2018-02-02T02:02:19.315Z,95.65
2018-02-02T02:02:45.407Z,96.03
2018-02-02T02:03:11.509Z,96.12
2018-02-02T02:03:37.605Z,96.03
2018-02-02T02:04:03.707Z,96.03
2018-02-02T02:04:29.816Z,96.03
2018-02-02T02:04:55.912Z,96.03
2018-02-02T02:05:22.012Z,96.03
2018-02-02T02:05:48.113Z,96.03
2018-02-02T02:06:14.211Z,96.03
2018-02-02T02:06:40.319Z,96.12
2018-02-02T02:07:06.417Z,96.12
2018-02-02T02:07:32.515Z,96.03
2018-02-02T02:07:58.613Z,95.93
2018-02-02T02:08:24.716Z,95.74
2018-02-02T02:08:50.811Z,95.26
2018-02-02T02:09:16.914Z,95.55
2018-02-02T02:09:43.010Z,95.55
2018-02-02T02:10:09.110Z,95.93
2018-02-02T02:10:35.212Z,95.74
2018-02-02T02:11:01.316Z,95.65
2018-02-02T02:11:27.412Z,96.12
2018-02-02T02:11:53.516Z,95.45
2018-02-02T02:12:19.618Z,95.36
2018-02-02T02:12:45.731Z,95.93
2018-02-02T02:13:11.834Z,95.55
2018-02-02T02:13:37.927Z,95.55
2018-02-02T02:14:04.029Z,95.65
2018-02-02T02:14:30.125Z,95.45
2018-02-02T02:14:56.224Z,95.74
2018-02-02T02:15:22.325Z,94.79
2018-02-02T02:15:48.435Z,95.36
2018-02-02T02:16:14.565Z,95.55
2018-02-02T02:16:40.656Z,95.74
2018-02-02T02:17:06.779Z,95.36
2018-02-02T02:17:32.879Z,94.89
2018-02-02T02:17:58.978Z,95.26
2018-02-02T02:18:25.077Z,95.45
2018-02-02T02:18:51.173Z,95.45
2018-02-02T02:19:17.275Z,95.45
2018-02-02T02:19:43.370Z,95.65
2018-02-02T02:20:09.472Z,95.55
2018-02-02T02:20:35.566Z,95.65
2018-02-02T02:21:01.676Z,95.55
2018-02-02T02:21:27.774Z,95.65
2018-02-02T02:21:53.887Z,95.45
2018-02-02T02:22:19.998Z,95.36
2018-02-02T02:22:46.099Z,95.07
2018-02-02T02:23:12.194Z,95.45
2018-02-02T02:23:38.293Z,95.36
2018-02-02T02:24:04.391Z,95.26
2018-02-02T02:24:30.502Z,95.74
2018-02-02T02:24:56.608Z,95.45
2018-02-02T02:25:22.707Z,95.65
2018-02-02T02:25:48.814Z,95.74
2018-02-02T02:26:14.914Z,95.74
2018-02-02T02:26:41.018Z,95.74
2018-02-02T02:27:07.116Z,95.55
2018-02-02T02:27:33.219Z,95.26
2018-02-02T02:27:59.316Z,95.74
2018-02-02T02:28:25.423Z,95.74
2018-02-02T02:28:51.552Z,95.84
2018-02-02T02:29:17.646Z,95.45
2018-02-02T02:29:43.771Z,95.65
2018-02-02T02:30:09.876Z,96.03
2018-02-02T02:30:35.974Z,96.03
2018-02-02T02:31:02.070Z,96.03
2018-02-02T02:31:28.177Z,96.12
2018-02-02T02:31:54.275Z,95.84
2018-02-02T02:32:20.372Z,95.55
2018-02-02T02:32:46.479Z,95.93
2018-02-02T02:33:12.569Z,95.36
2018-02-02T02:33:38.674Z,95.36
2018-02-02T02:34:04.768Z,95.55
2018-02-02T02:34:30.869Z,96.03
2018-02-02T02:34:56.969Z,96.12
2018-02-02T02:35:23.071Z,96.31
2018-02-02T02:35:49.188Z,96.22
2018-02-02T02:36:15.288Z,97.07
2018-02-02T02:36:41.386Z,96.78
2018-02-02T02:37:07.490Z,96.88
2018-02-02T02:37:33.594Z,97.64
2018-02-02T02:37:59.689Z,98.11
2018-02-02T02:38:25.797Z,98.77
2018-02-02T02:38:51.892Z,99.34
2018-02-02T02:39:17.983Z,98.77
2018-02-02T02:39:44.085Z,99.63
2018-02-02T02:40:10.199Z,99.91
2018-02-02T02:40:36.303Z,99.72
2018-02-02T02:41:02.403Z,99.91
2018-02-02T02:41:28.502Z,99.99
2018-02-02T02:41:54.604Z,99.99
2018-02-02T02:42:20.716Z,99.99
2018-02-02T02:42:46.852Z,99.99
2018-02-02T02:43:12.950Z,99.99
2018-02-02T02:43:39.048Z,99.99
2018-02-02T02:44:05.158Z,99.99
2018-02-02T02:44:31.261Z,99.99
2018-02-02T02:44:57.350Z,99.99
2018-02-02T02:45:23.453Z,99.99
2018-02-02T02:45:49.552Z,99.99
2018-02-02T02:46:15.647Z,99.99
2018-02-02T02:46:41.763Z,99.99
2018-02-02T02:47:07.859Z,99.99
2018-02-02T02:47:33.965Z,99.99
2018-02-02T02:48:00.059Z,99.99
2018-02-02T02:48:26.156Z,99.99
2018-02-02T02:48:52.260Z,99.99
2018-02-02T02:49:18.357Z,99.99
2018-02-02T02:49:44.457Z,99.99
2018-02-02T02:50:10.567Z,99.99
2018-02-02T02:50:36.690Z,99.99
2018-02-02T02:51:02.802Z,99.99
2018-02-02T02:51:28.899Z,99.99
2018-02-02T02:51:55.014Z,99.99
2018-02-02T02:52:21.115Z,99.99
2018-02-02T02:52:47.214Z,99.99
2018-02-02T02:53:13.316Z,99.99
2018-02-02T02:53:39.410Z,99.99
2018-02-02T02:54:05.516Z,99.99
2018-02-02T02:54:31.614Z,99.99
2018-02-02T02:54:57.710Z,99.99
2018-02-02T02:55:23.809Z,99.99
2018-02-02T02:55:49.910Z,99.99
2018-02-02T02:56:16.011Z,99.99
2018-02-02T02:56:42.115Z,99.99
2018-02-02T02:57:08.213Z,99.99
2018-02-02T02:57:34.314Z,99.99
2018-02-02T02:58:00.412Z,99.99
2018-02-02T02:58:26.513Z,99.99
2018-02-02T02:58:52.609Z,99.99
2018-02-02T02:59:18.729Z,99.99
2018-02-02T02:59:44.828Z,99.99
2018-02-02T03:00:10.924Z,99.99
2018-02-02T03:00:37.027Z,99.99
2018-02-02T03:01:03.149Z,99.99
2018-02-02T03:01:29.246Z,99.99
2018-02-02T03:01:55.348Z,99.99
2018-02-02T03:02:21.447Z,99.99
2018-02-02T03:02:47.544Z,99.99
2018-02-02T03:03:13.649Z,99.99
2018-02-02T03:03:39.784Z,99.99
2018-02-02T03:04:05.955Z,99.99
2018-02-02T03:04:32.017Z,99.99
2018-02-02T03:04:58.130Z,99.99
2018-02-02T03:05:24.227Z,99.99
2018-02-02T03:05:50.328Z,99.99
2018-02-02T03:06:16.430Z,99.99
2018-02-02T03:06:42.526Z,99.99
2018-02-02T03:07:08.623Z,99.99
2018-02-02T03:07:34.726Z,99.99
2018-02-02T03:08:00.823Z,99.99
2018-02-02T03:08:26.925Z,99.99
2018-02-02T03:08:53.018Z,99.99
2018-02-02T03:09:19.119Z,99.99
2018-02-02T03:09:45.222Z,99.99
2018-02-02T03:10:11.335Z,99.99
2018-02-02T03:10:37.432Z,99.99
2018-02-02T03:11:03.536Z,99.99
2018-02-02T03:11:29.634Z,99.99
2018-02-02T03:11:55.729Z,99.99
2018-02-02T03:12:21.827Z,99.99
2018-02-02T03:12:47.931Z,99.99
2018-02-02T03:13:14.042Z,99.99
2018-02-02T03:13:40.143Z,99.99
2018-02-02T03:14:06.238Z,99.99
2018-02-02T03:14:32.342Z,99.99
2018-02-02T03:14:58.442Z,99.99
2018-02-02T03:15:24.539Z,99.99
2018-02-02T03:15:50.637Z,99.99
2018-02-02T03:16:16.737Z,99.99
2018-02-02T03:16:42.842Z,99.99
2018-02-02T03:17:08.938Z,99.99
2018-02-02T03:17:35.035Z,99.99
2018-02-02T03:18:01.143Z,99.99
2018-02-02T03:18:27.233Z,99.99
2018-02-02T03:18:53.336Z,99.99
2018-02-02T03:19:19.434Z,99.99
2018-02-02T03:19:45.541Z,99.99
2018-02-02T03:20:11.655Z,99.99
2018-02-02T03:20:37.753Z,99.99
2018-02-02T03:21:03.861Z,99.99
2018-02-02T03:21:29.957Z,99.99
2018-02-02T03:21:56.053Z,99.99
2018-02-02T03:22:22.149Z,99.99
2018-02-02T03:22:48.253Z,99.99
2018-02-02T03:23:14.355Z,99.99
2018-02-02T03:23:40.468Z,99.99
2018-02-02T03:24:06.566Z,99.99
2018-02-02T03:24:32.667Z,99.99
2018-02-02T03:24:58.762Z,99.99
2018-02-02T03:25:24.878Z,99.99
2018-02-02T03:25:50.984Z,99.99
2018-02-02T03:26:17.088Z,99.99
2018-02-02T03:26:43.177Z,99.99
2018-02-02T03:27:09.292Z,99.99
2018-02-02T03:27:35.400Z,99.99
2018-02-02T03:28:01.502Z,99.99
2018-02-02T03:28:27.598Z,99.99
2018-02-02T03:28:53.692Z,99.99
2018-02-02T03:29:19.787Z,99.99
2018-02-02T03:29:45.886Z,99.99
2018-02-02T03:30:11.991Z,99.99
2018-02-02T03:30:38.095Z,99.99
2018-02-02T03:31:04.204Z,99.99
2018-02-02T03:31:30.301Z,99.99
2018-02-02T03:31:56.404Z,99.99
2018-02-02T03:32:22.499Z,99.99
2018-02-02T03:32:48.601Z,99.99
2018-02-02T03:33:14.694Z,99.99
2018-02-02T03:33:40.797Z,99.99
2018-02-02T03:34:06.896Z,99.99
2018-02-02T03:34:32.992Z,99.99
2018-02-02T03:34:59.106Z,99.99
2018-02-02T03:35:25.210Z,99.99
2018-02-02T03:35:51.309Z,99.99
2018-02-02T03:36:17.404Z,99.99
2018-02-02T03:36:43.508Z,99.99
2018-02-02T03:37:09.608Z,99.99
2018-02-02T03:37:35.706Z,99.99
2018-02-02T03:38:01.803Z,99.99
2018-02-02T03:38:27.902Z,99.99
2018-02-02T03:38:53.996Z,99.99
2018-02-02T03:39:20.100Z,99.99
2018-02-02T03:39:46.196Z,99.99
2018-02-02T03:40:12.299Z,99.99
2018-02-02T03:40:38.404Z,99.99
2018-02-02T03:41:04.518Z,99.99
2018-02-02T03:41:30.614Z,99.99
2018-02-02T03:41:56.715Z,99.99
2018-02-02T03:42:22.810Z,99.99
2018-02-02T03:42:48.905Z,99.99
2018-02-02T03:43:15.006Z,99.99
2018-02-02T03:43:41.101Z,99.99
2018-02-02T03:44:07.205Z,99.99
2018-02-02T03:44:33.298Z,99.99
2018-02-02T03:44:59.402Z,99.99
2018-02-02T03:45:25.496Z,99.99
2018-02-02T03:45:51.593Z,99.99
2018-02-02T03:46:17.688Z,99.99
2018-02-02T03:46:43.791Z,99.99
2018-02-02T03:47:09.897Z,99.99
2018-02-02T03:47:35.993Z,99.99
2018-02-02T03:48:02.098Z,99.99
2018-02-02T03:48:28.198Z,99.99
2018-02-02T03:48:54.293Z,99.99
2018-02-02T03:49:20.394Z,99.99
2018-02-02T03:49:46.493Z,99.99
2018-02-02T03:50:12.595Z,99.99
2018-02-02T03:50:38.696Z,99.99
2018-02-02T03:51:04.795Z,99.99
2018-02-02T03:51:30.894Z,99.99
2018-02-02T03:51:57.014Z,99.99
2018-02-02T03:52:23.115Z,99.99
2018-02-02T03:52:49.206Z,99.99
2018-02-02T03:53:15.306Z,99.99
2018-02-02T03:53:41.401Z,99.99
2018-02-02T03:54:07.500Z,99.99
2018-02-02T03:54:33.601Z,99.99
2018-02-02T03:54:59.704Z,99.99
2018-02-02T03:55:25.797Z,99.99
2018-02-02T03:55:51.897Z,99.99
2018-02-02T03:56:18.027Z,99.99
2018-02-02T03:56:44.109Z,99.99
2018-02-02T03:57:10.213Z,99.99
2018-02-02T03:57:36.309Z,99.99
2018-02-02T03:58:02.410Z,99.99
2018-02-02T03:58:28.510Z,99.99
2018-02-02T03:58:54.610Z,99.99
2018-02-02T03:59:20.721Z,99.99
2018-02-02T03:59:46.824Z,99.99
2018-02-02T04:00:12.925Z,99.99
2018-02-02T04:00:39.020Z,99.99
2018-02-02T04:01:05.123Z,99.99
2018-02-02T04:01:31.220Z,99.99
2018-02-02T04:01:57.324Z,99.99
2018-02-02T04:02:23.421Z,99.99
2018-02-02T04:02:49.518Z,99.99
2018-02-02T04:03:15.622Z,99.99
2018-02-02T04:03:41.723Z,99.99
2018-02-02T04:04:07.817Z,99.99
2018-02-02T04:04:33.916Z,99.99
2018-02-02T04:05:00.029Z,99.99
2018-02-02T04:05:26.127Z,99.99
2018-02-02T04:05:52.230Z,99.99
2018-02-02T04:06:18.340Z,99.99
2018-02-02T04:06:44.450Z,99.99
2018-02-02T04:07:10.643Z,99.99
2018-02-02T04:07:36.694Z,99.99
2018-02-02T04:08:02.789Z,99.99
2018-02-02T04:08:28.909Z,99.99
2018-02-02T04:08:55.009Z,99.99
2018-02-02T04:09:21.106Z,99.99
2018-02-02T04:09:47.207Z,99.99
2018-02-02T04:10:13.303Z,99.99
2018-02-02T04:10:39.403Z,99.99
2018-02-02T04:11:05.507Z,99.99
2018-02-02T04:11:31.609Z,99.99
2018-02-02T04:11:57.716Z,99.99
2018-02-02T04:12:23.817Z,99.99
2018-02-02T04:12:49.913Z,99.99
2018-02-02T04:13:16.017Z,99.99
2018-02-02T04:13:42.121Z,99.99
2018-02-02T04:14:08.217Z,99.99
2018-02-02T04:14:34.312Z,99.99
2018-02-02T04:15:00.429Z,99.99
2018-02-02T04:15:26.528Z,99.99
2018-02-02T04:15:52.631Z,99.99
2018-02-02T04:16:18.742Z,99.99
2018-02-02T04:16:44.838Z,99.99
2018-02-02T04:17:10.942Z,99.99
2018-02-02T04:17:37.044Z,99.99
2018-02-02T04:18:03.139Z,99.99
2018-02-02T04:18:29.256Z,99.99
2018-02-02T04:18:55.380Z,99.99
2018-02-02T04:19:21.498Z,99.99
2018-02-02T04:19:47.592Z,99.99
2018-02-02T04:20:13.697Z,99.99
2018-02-02T04:20:39.793Z,99.99
2018-02-02T04:21:05.913Z,99.99
2018-02-02T04:21:32.010Z,99.99
2018-02-02T04:21:58.125Z,99.99
2018-02-02T04:22:24.230Z,99.99
2018-02-02T04:22:50.330Z,99.99
2018-02-02T04:23:16.442Z,99.99
2018-02-02T04:23:42.545Z,99.99
2018-02-02T04:24:08.642Z,99.99
2018-02-02T04:24:34.745Z,99.99
2018-02-02T04:25:00.843Z,99.99
2018-02-02T04:25:26.948Z,99.99
2018-02-02T04:25:53.045Z,99.99
2018-02-02T04:26:19.150Z,99.99
2018-02-02T04:26:45.249Z,99.99
2018-02-02T04:27:11.344Z,99.99
2018-02-02T04:27:37.449Z,99.99
2018-02-02T04:28:03.540Z,99.99
2018-02-02T04:28:29.639Z,99.99
2018-02-02T04:28:55.756Z,99.99
2018-02-02T04:29:21.853Z,99.99
2018-02-02T04:29:47.951Z,99.99
2018-02-02T04:30:14.052Z,99.99
2018-02-02T04:30:40.146Z,99.99
2018-02-02T04:31:06.248Z,99.99
2018-02-02T04:31:32.350Z,99.99
2018-02-02T04:31:58.445Z,99.99
2018-02-02T04:32:24.552Z,99.99
2018-02-02T04:32:50.652Z,99.99
2018-02-02T04:33:16.749Z,99.99
2018-02-02T04:33:42.852Z,99.99
2018-02-02T04:34:08.956Z,99.99
2018-02-02T04:34:35.056Z,99.99
2018-02-02T04:35:01.171Z,99.99
2018-02-02T04:35:27.299Z,99.99
2018-02-02T04:35:53.382Z,99.99
2018-02-02T04:36:19.479Z,99.99
2018-02-02T04:36:45.580Z,99.99
2018-02-02T04:37:11.682Z,99.99
2018-02-02T04:37:37.786Z,99.99
2018-02-02T04:38:03.878Z,99.99
2018-02-02T04:38:29.990Z,99.99
2018-02-02T04:38:56.096Z,99.99
2018-02-02T04:39:22.195Z,99.99
2018-02-02T04:39:48.290Z,99.99
2018-02-02T04:40:14.398Z,99.99
2018-02-02T04:40:40.494Z,99.99
2018-02-02T04:41:06.600Z,99.99
2018-02-02T04:41:32.695Z,99.99
2018-02-02T04:41:58.797Z,99.99
2018-02-02T04:42:24.892Z,99.99
2018-02-02T04:42:50.993Z,99.99
2018-02-02T04:43:17.110Z,99.99
2018-02-02T04:43:43.205Z,99.99
2018-02-02T04:44:09.305Z,99.99
2018-02-02T04:44:35.427Z,99.99
2018-02-02T04:45:01.522Z,99.99
2018-02-02T04:45:27.624Z,99.99
2018-02-02T04:45:53.719Z,99.99
2018-02-02T04:46:19.817Z,99.99
2018-02-02T04:46:45.940Z,99.99
2018-02-02T04:47:12.040Z,99.99
2018-02-02T04:47:38.135Z,99.99
2018-02-02T04:48:04.232Z,99.99
2018-02-02T04:48:30.337Z,99.99
2018-02-02T04:48:56.430Z,99.99
2018-02-02T04:49:22.534Z,99.99
2018-02-02T04:49:48.635Z,99.99
2018-02-02T04:50:14.733Z,99.99
2018-02-02T04:50:40.838Z,99.99
2018-02-02T04:51:06.941Z,99.99
2018-02-02T04:51:33.038Z,99.99
2018-02-02T04:51:59.141Z,99.99
2018-02-02T04:52:25.255Z,99.99
2018-02-02T04:52:51.360Z,99.99
2018-02-02T04:53:17.474Z,99.99
2018-02-02T04:53:43.575Z,99.99
2018-02-02T04:54:09.676Z,99.99
2018-02-02T04:54:35.773Z,99.99
2018-02-02T04:55:01.867Z,99.99
2018-02-02T04:55:27.968Z,99.99
2018-02-02T04:55:54.071Z,99.99
2018-02-02T04:56:20.183Z,99.99
2018-02-02T04:56:46.271Z,99.99
2018-02-02T04:57:12.380Z,99.99
2018-02-02T04:57:38.478Z,99.99
2018-02-02T04:58:04.576Z,99.99
2018-02-02T04:58:30.691Z,99.99
2018-02-02T04:58:56.795Z,99.99
2018-02-02T04:59:22.898Z,99.99
2018-02-02T04:59:48.993Z,99.99
2018-02-02T05:00:15.087Z,99.99
2018-02-02T05:00:41.188Z,99.99
2018-02-02T05:01:07.287Z,99.99
2018-02-02T05:01:33.381Z,99.99
2018-02-02T05:01:59.478Z,99.99
2018-02-02T05:02:25.584Z,99.99
2018-02-02T05:02:51.679Z,99.99
2018-02-02T05:03:17.785Z,99.99
2018-02-02T05:03:43.888Z,99.99
2018-02-02T05:04:10.003Z,99.99
2018-02-02T05:04:36.105Z,99.99
2018-02-02T05:05:02.205Z,99.99
2018-02-02T05:05:28.299Z,99.99
2018-02-02T05:05:54.422Z,99.99
2018-02-02T05:06:20.516Z,99.99
2018-02-02T05:06:46.623Z,99.99
2018-02-02T05:07:12.714Z,99.99
2018-02-02T05:07:38.815Z,99.99
2018-02-02T05:08:04.916Z,99.99
2018-02-02T05:08:31.015Z,99.99
2018-02-02T05:08:57.111Z,99.99
2018-02-02T05:09:23.218Z,99.99
2018-02-02T05:09:49.333Z,99.99
2018-02-02T05:10:15.465Z,99.99
2018-02-02T05:10:41.566Z,99.99
2018-02-02T05:11:07.681Z,99.99
2018-02-02T05:11:33.797Z,99.99
2018-02-02T05:11:59.891Z,99.99
2018-02-02T05:12:25.995Z,99.99
2018-02-02T05:12:52.093Z,99.99
2018-02-02T05:13:18.194Z,99.99
2018-02-02T05:13:44.292Z,99.99
2018-02-02T05:14:10.386Z,99.99
2018-02-02T05:14:36.484Z,99.99
2018-02-02T05:15:02.583Z,99.99
2018-02-02T05:15:28.688Z,99.99
2018-02-02T05:15:54.787Z,99.99
2018-02-02T05:16:20.910Z,99.99
2018-02-02T05:16:47.005Z,99.99
2018-02-02T05:17:13.104Z,99.99
2018-02-02T05:17:39.208Z,99.99
2018-02-02T05:18:05.308Z,99.99
2018-02-02T05:18:31.420Z,99.99
2018-02-02T05:18:57.521Z,99.99
2018-02-02T05:19:23.624Z,99.99
2018-02-02T05:19:49.712Z,99.99
2018-02-02T05:20:15.816Z,99.99
2018-02-02T05:20:41.928Z,99.99
2018-02-02T05:21:08.034Z,99.99
2018-02-02T05:21:34.135Z,99.99
2018-02-02T05:22:00.229Z,99.99
2018-02-02T05:22:26.328Z,99.99
2018-02-02T05:22:52.432Z,99.99
2018-02-02T05:23:18.526Z,99.99
2018-02-02T05:23:44.627Z,99.99
2018-02-02T05:24:10.730Z,99.99
2018-02-02T05:24:36.827Z,99.99
2018-02-02T05:25:02.951Z,99.99
2018-02-02T05:25:29.050Z,99.99
2018-02-02T05:25:55.148Z,99.99
2018-02-02T05:26:21.251Z,99.99
2018-02-02T05:26:47.346Z,99.99
2018-02-02T05:27:13.445Z,99.99
2018-02-02T05:27:39.550Z,99.99
2018-02-02T05:28:05.662Z,99.99
2018-02-02T05:28:31.762Z,99.99
2018-02-02T05:28:57.882Z,99.99
2018-02-02T05:29:23.979Z,99.99
2018-02-02T05:29:50.077Z,99.99
2018-02-02T05:30:16.180Z,99.99
2018-02-02T05:30:42.301Z,99.99
2018-02-02T05:31:08.398Z,99.99
2018-02-02T05:31:34.497Z,99.99
2018-02-02T05:32:00.600Z,99.99
2018-02-02T05:32:26.719Z,99.99
2018-02-02T05:32:52.816Z,99.99
2018-02-02T05:33:18.910Z,99.99
2018-02-02T05:33:45.030Z,99.99
2018-02-02T05:34:11.135Z,99.99
2018-02-02T05:34:37.237Z,99.99
2018-02-02T05:35:03.337Z,99.99
2018-02-02T05:35:29.439Z,99.99
2018-02-02T05:35:55.534Z,99.99
2018-02-02T05:36:21.638Z,99.99
2018-02-02T05:36:47.757Z,99.99
2018-02-02T05:37:13.854Z,99.99